createdAt,value
2019-03-08T00:02:18.735Z,17.50
2019-03-08T00:04:47.416Z,17.50
2019-03-08T00:07:16.449Z,17.50
2019-03-08T00:09:45.448Z,17.50
2019-03-08T00:12:14.236Z,17.50
2019-03-08T00:14:42.904Z,17.50
2019-03-08T00:17:11.588Z,17.50
2019-03-08T00:19:40.804Z,17.50
2019-03-08T00:22:09.491Z,17.40
2019-03-08T00:24:38.164Z,17.50
2019-03-08T00:27:06.862Z,17.50
2019-03-08T00:29:35.532Z,17.50
2019-03-08T00:32:04.539Z,17.40
2019-03-08T00:34:33.212Z,17.40
2019-03-08T00:37:01.900Z,17.40
2019-03-08T00:39:30.567Z,17.40
2019-03-08T00:41:59.253Z,17.40
2019-03-08T00:44:27.923Z,17.40
2019-03-08T00:46:56.617Z,17.40
2019-03-08T00:49:25.287Z,17.40
2019-03-08T00:51:54.344Z,17.40
2019-03-08T00:54:23.337Z,17.40
2019-03-08T00:56:52.044Z,17.40
2019-03-08T00:59:20.731Z,17.40
2019-03-08T01:01:49.447Z,17.40
2019-03-08T01:04:18.115Z,17.40
2019-03-08T01:06:47.117Z,17.40
2019-03-08T01:09:15.788Z,17.40
2019-03-08T01:11:45.404Z,17.40
2019-03-08T01:14:14.376Z,17.40
2019-03-08T01:16:43.064Z,17.40
2019-03-08T01:19:11.740Z,17.40
2019-03-08T01:21:40.424Z,17.40
2019-03-08T01:24:09.299Z,17.40
2019-03-08T01:26:38.612Z,17.40
2019-03-08T01:29:07.292Z,17.40
2019-03-08T01:31:35.984Z,17.40
2019-03-08T01:34:04.660Z,17.40
2019-03-08T01:36:33.676Z,17.40
2019-03-08T01:39:02.566Z,17.40
2019-03-08T01:41:31.551Z,17.40
2019-03-08T01:44:00.853Z,17.40
2019-03-08T01:46:29.540Z,17.40
2019-03-08T01:48:58.207Z,17.40
2019-03-08T01:51:26.906Z,17.40
2019-03-08T01:53:55.571Z,17.40
2019-03-08T01:56:24.581Z,17.40
2019-03-08T01:58:53.232Z,17.40
2019-03-08T02:01:21.911Z,17.40
2019-03-08T02:03:50.854Z,17.40
2019-03-08T02:06:19.847Z,17.40
2019-03-08T02:08:48.508Z,17.40
2019-03-08T02:11:17.170Z,17.30
2019-03-08T02:13:45.827Z,17.40
2019-03-08T02:16:14.503Z,17.40
2019-03-08T02:18:43.480Z,17.40
2019-03-08T02:21:12.156Z,17.40
2019-03-08T02:23:40.819Z,17.40
2019-03-08T02:26:09.852Z,17.40
2019-03-08T02:28:38.504Z,17.30
2019-03-08T02:31:07.632Z,17.30
2019-03-08T02:33:36.623Z,17.30
2019-03-08T02:36:05.301Z,17.30
2019-03-08T02:38:33.955Z,17.30
2019-03-08T02:41:02.972Z,17.40
2019-03-08T02:43:31.627Z,17.30
2019-03-08T02:46:00.567Z,17.30
2019-03-08T02:48:29.227Z,17.30
2019-03-08T02:50:58.655Z,17.30
2019-03-08T02:53:27.318Z,17.30
2019-03-08T02:55:56.304Z,17.30
2019-03-08T02:58:24.966Z,17.30
2019-03-08T03:00:53.879Z,17.30
2019-03-08T03:03:22.467Z,17.30
2019-03-08T03:05:51.695Z,17.20
2019-03-08T03:08:20.693Z,17.30
2019-03-08T03:10:49.368Z,17.30
2019-03-08T03:13:18.363Z,17.30
2019-03-08T03:15:47.039Z,17.30
2019-03-08T03:18:15.700Z,17.20
2019-03-08T03:20:44.374Z,17.30
2019-03-08T03:23:13.026Z,17.30
2019-03-08T03:25:42.311Z,17.30
2019-03-08T03:28:10.904Z,17.30
2019-03-08T03:30:39.585Z,17.30
2019-03-08T03:33:08.239Z,17.30
2019-03-08T03:35:37.235Z,17.30
2019-03-08T03:38:05.896Z,17.30
2019-03-08T03:40:34.567Z,17.30
2019-03-08T03:43:03.229Z,17.30
2019-03-08T03:45:31.906Z,17.30
2019-03-08T03:48:00.899Z,17.20
2019-03-08T03:50:29.515Z,17.20
2019-03-08T03:52:58.095Z,17.20
2019-03-08T03:55:27.059Z,17.20
2019-03-08T03:57:55.711Z,17.20
2019-03-08T04:00:24.484Z,17.30
2019-03-08T04:02:53.731Z,17.20
2019-03-08T04:05:22.728Z,17.20
2019-03-08T04:07:51.450Z,17.20
2019-03-08T04:10:20.123Z,17.20
2019-03-08T04:12:49.103Z,17.20
2019-03-08T04:15:17.776Z,17.20
2019-03-08T04:17:46.736Z,17.20
2019-03-08T04:20:15.417Z,17.20
2019-03-08T04:22:44.079Z,17.20
2019-03-08T04:25:12.969Z,17.20
2019-03-08T04:27:41.835Z,17.20
2019-03-08T04:30:12.567Z,17.20
2019-03-08T04:32:41.692Z,17.20
2019-03-08T04:35:10.672Z,17.20
2019-03-08T04:37:39.354Z,17.20
2019-03-08T04:40:08.727Z,17.10
2019-03-08T04:42:37.427Z,17.10
2019-03-08T04:45:06.387Z,17.10
2019-03-08T04:47:35.149Z,17.10
2019-03-08T04:50:03.955Z,17.00
2019-03-08T04:52:32.628Z,17.10
2019-03-08T04:55:01.677Z,17.00
2019-03-08T04:57:30.355Z,17.10
2019-03-08T04:59:59.035Z,17.10
2019-03-08T05:02:28.049Z,17.10
2019-03-08T05:04:56.712Z,17.10
2019-03-08T05:07:25.393Z,17.10
2019-03-08T05:09:54.363Z,17.20
2019-03-08T05:12:23.405Z,17.20
2019-03-08T05:14:52.063Z,17.00
2019-03-08T05:17:20.736Z,17.10
2019-03-08T05:19:49.669Z,17.00
2019-03-08T05:22:18.344Z,17.10
2019-03-08T05:24:47.096Z,17.10
2019-03-08T05:27:15.824Z,17.10
2019-03-08T05:29:44.824Z,17.00
2019-03-08T05:32:13.756Z,17.00
2019-03-08T05:34:42.344Z,17.00
2019-03-08T05:37:11.111Z,17.00
2019-03-08T05:39:39.763Z,17.00
2019-03-08T05:42:08.776Z,17.00
2019-03-08T05:44:37.765Z,17.00
2019-03-08T05:47:06.435Z,16.90
2019-03-08T05:49:35.091Z,17.00
2019-03-08T05:52:03.779Z,17.00
2019-03-08T05:54:33.121Z,17.00
2019-03-08T05:57:01.792Z,17.00
2019-03-08T05:59:30.445Z,17.00
2019-03-08T06:01:59.110Z,17.00
2019-03-08T06:04:27.772Z,17.00
2019-03-08T06:06:56.461Z,16.90
2019-03-08T06:09:25.748Z,17.00
2019-03-08T06:11:54.957Z,16.90
2019-03-08T06:14:23.783Z,16.90
2019-03-08T06:16:52.831Z,17.00
2019-03-08T06:19:21.495Z,17.00
2019-03-08T06:21:50.172Z,17.00
2019-03-08T06:24:18.828Z,17.00
2019-03-08T06:26:47.784Z,17.00
2019-03-08T06:29:18.151Z,17.00
2019-03-08T06:31:47.718Z,17.00
2019-03-08T06:34:16.369Z,17.00
2019-03-08T06:36:45.119Z,17.00
2019-03-08T06:39:13.780Z,16.90
2019-03-08T06:41:42.459Z,17.00
2019-03-08T06:44:11.456Z,17.00
2019-03-08T06:46:40.359Z,16.90
2019-03-08T06:49:09.015Z,17.00
2019-03-08T06:51:37.707Z,16.90
2019-03-08T06:54:06.372Z,17.00
2019-03-08T06:56:35.415Z,17.00
2019-03-08T06:59:11.815Z,17.00
2019-03-08T07:01:41.756Z,17.00
2019-03-08T07:04:10.411Z,17.00
2019-03-08T07:06:39.096Z,16.90
2019-03-08T07:09:07.971Z,16.90
2019-03-08T07:11:36.644Z,17.00
2019-03-08T07:14:05.624Z,17.00
2019-03-08T07:16:34.309Z,17.00
2019-03-08T07:19:03.308Z,17.00
2019-03-08T07:21:53.928Z,17.00
2019-03-08T07:24:42.720Z,16.90
2019-03-08T07:27:48.835Z,16.90
2019-03-08T07:30:39.839Z,16.90
2019-03-08T07:33:30.643Z,16.90
2019-03-08T07:36:21.579Z,16.90
2019-03-08T07:39:01.891Z,16.90
2019-03-08T07:41:37.868Z,16.90
2019-03-08T07:44:25.993Z,16.90
2019-03-08T07:47:07.396Z,17.00
2019-03-08T07:49:49.165Z,16.90
2019-03-08T07:52:23.651Z,17.00
2019-03-08T07:55:11.339Z,17.00
2019-03-08T07:58:17.334Z,17.00
2019-03-08T08:01:08.203Z,17.10
2019-03-08T08:03:58.723Z,17.00
2019-03-08T08:06:49.656Z,17.00
2019-03-08T08:09:36.202Z,17.00
2019-03-08T08:12:33.316Z,17.00
2019-03-08T08:15:24.149Z,17.10
2019-03-08T08:18:05.346Z,17.00
2019-03-08T08:21:02.260Z,17.00
2019-03-08T08:23:38.251Z,17.10
2019-03-08T08:26:35.594Z,17.10
2019-03-08T08:29:20.281Z,17.10
2019-03-08T08:32:08.732Z,17.20
2019-03-08T08:34:44.775Z,17.20
2019-03-08T08:37:35.700Z,17.40
2019-03-08T08:40:33.016Z,17.40
2019-03-08T08:43:23.867Z,17.50
2019-03-08T08:46:13.572Z,17.60
2019-03-08T08:49:01.684Z,17.70
2019-03-08T08:51:55.904Z,17.70
2019-03-08T08:54:35.117Z,17.80
2019-03-08T08:57:22.343Z,17.80
2019-03-08T09:00:13.247Z,17.90
2019-03-08T09:03:00.587Z,17.90
2019-03-08T09:05:43.891Z,18.00
2019-03-08T09:08:31.924Z,18.00
2019-03-08T09:11:08.189Z,18.10
2019-03-08T09:13:53.566Z,18.10
2019-03-08T09:16:29.167Z,18.10
2019-03-08T09:19:19.980Z,18.20
2019-03-08T09:22:16.848Z,18.20
2019-03-08T09:25:00.472Z,18.20
2019-03-08T09:27:42.091Z,18.20
2019-03-08T09:30:34.283Z,18.30
2019-03-08T09:33:11.607Z,18.30
2019-03-08T09:36:00.680Z,18.30
2019-03-08T09:38:47.275Z,18.30
2019-03-08T09:41:27.222Z,18.30
2019-03-08T09:44:00.753Z,18.30
2019-03-08T09:46:50.273Z,18.40
2019-03-08T09:49:37.312Z,18.40
2019-03-08T09:52:26.299Z,18.40
2019-03-08T09:55:08.495Z,18.40
2019-03-08T09:57:43.619Z,18.40
2019-03-08T10:00:31.179Z,18.50
2019-03-08T10:03:34.451Z,18.60
2019-03-08T10:06:08.896Z,18.60
2019-03-08T10:08:49.156Z,18.70
2019-03-08T10:11:25.411Z,18.70
2019-03-08T10:14:10.999Z,18.70
2019-03-08T10:16:49.105Z,18.70
2019-03-08T10:19:26.595Z,18.70
2019-03-08T10:22:18.841Z,18.80
2019-03-08T10:25:05.671Z,18.80
2019-03-08T10:27:45.778Z,18.80
2019-03-08T10:30:33.434Z,18.80
2019-03-08T10:33:45.944Z,18.80
2019-03-08T10:36:35.132Z,18.80
2019-03-08T10:39:32.560Z,18.80
2019-03-08T10:42:20.384Z,18.90
2019-03-08T10:44:58.816Z,18.90
2019-03-08T10:47:56.022Z,18.90
2019-03-08T10:50:32.025Z,18.90
2019-03-08T10:53:26.536Z,19.00
2019-03-08T10:56:14.311Z,19.00
2019-03-08T10:59:10.371Z,19.00
2019-03-08T11:01:45.736Z,19.00
2019-03-08T11:04:33.501Z,19.00
2019-03-08T11:07:29.392Z,19.00
2019-03-08T11:10:21.780Z,19.00
2019-03-08T11:13:11.908Z,19.00
2019-03-08T11:15:58.932Z,19.00
2019-03-08T11:18:35.297Z,19.00
2019-03-08T11:21:09.459Z,19.00
2019-03-08T11:23:58.891Z,19.10
2019-03-08T11:26:43.973Z,19.10
2019-03-08T11:29:35.266Z,19.10
2019-03-08T11:32:22.936Z,19.10
2019-03-08T11:34:55.888Z,19.20
2019-03-08T11:37:55.711Z,19.20
2019-03-08T11:40:37.605Z,19.20
2019-03-08T11:43:16.946Z,19.30
2019-03-08T11:45:57.404Z,19.30
2019-03-08T11:48:45.095Z,19.30
2019-03-08T11:51:35.657Z,19.30
2019-03-08T11:54:29.647Z,19.30
2019-03-08T11:57:16.541Z,19.30
2019-03-08T12:00:02.308Z,19.30
2019-03-08T12:02:41.873Z,19.30
2019-03-08T12:05:20.676Z,19.30
2019-03-08T12:07:59.608Z,19.40
2019-03-08T12:10:56.360Z,19.40
2019-03-08T12:13:43.107Z,19.40
2019-03-08T12:16:34.068Z,19.40
2019-03-08T12:19:24.637Z,19.40
2019-03-08T12:21:59.388Z,19.40
2019-03-08T12:24:54.403Z,19.40
2019-03-08T12:27:29.644Z,19.40
2019-03-08T12:30:17.816Z,19.50
2019-03-08T12:32:55.059Z,19.40
2019-03-08T12:35:31.867Z,19.40
2019-03-08T12:38:25.632Z,19.50
2019-03-08T12:41:14.588Z,19.50
2019-03-08T12:44:08.719Z,19.50
2019-03-08T12:47:03.057Z,19.50
2019-03-08T12:49:50.825Z,19.50
2019-03-08T12:52:34.843Z,19.60
2019-03-08T12:55:21.748Z,19.60
2019-03-08T12:58:16.046Z,19.60
2019-03-08T13:00:56.484Z,19.70
2019-03-08T13:03:39.020Z,19.60
2019-03-08T13:06:26.024Z,19.60
2019-03-08T13:09:12.496Z,19.60
2019-03-08T13:11:41.164Z,19.60
2019-03-08T13:14:10.210Z,19.60
2019-03-08T13:16:39.176Z,19.60
2019-03-08T13:19:08.196Z,19.60
2019-03-08T13:21:36.883Z,19.60
2019-03-08T13:24:05.548Z,19.60
2019-03-08T13:26:34.476Z,19.70
2019-03-08T13:29:03.169Z,19.60
2019-03-08T13:31:32.116Z,19.70
2019-03-08T13:34:00.711Z,19.60
2019-03-08T13:36:29.399Z,19.60
2019-03-08T13:38:58.069Z,19.70
2019-03-08T13:41:26.759Z,19.70
2019-03-08T13:43:55.415Z,19.70
2019-03-08T13:46:24.100Z,19.70
2019-03-08T13:48:52.812Z,19.70
2019-03-08T13:51:21.418Z,19.70
2019-03-08T13:53:50.442Z,19.70
2019-03-08T13:56:19.109Z,19.70
2019-03-08T13:58:48.076Z,19.70
2019-03-08T14:01:16.752Z,19.70
2019-03-08T14:03:45.414Z,19.70
2019-03-08T14:06:14.364Z,19.70
2019-03-08T14:08:43.971Z,19.80
2019-03-08T14:11:12.652Z,19.80
2019-03-08T14:13:41.336Z,19.80
2019-03-08T14:16:10.031Z,19.80
2019-03-08T14:18:39.011Z,19.80
2019-03-08T14:21:07.675Z,19.80
2019-03-08T14:23:36.913Z,19.80
2019-03-08T14:26:05.924Z,19.80
2019-03-08T14:28:34.604Z,19.80
2019-03-08T14:31:12.490Z,19.80
2019-03-08T14:33:40.563Z,19.80
2019-03-08T14:36:09.535Z,19.80
2019-03-08T14:38:38.623Z,19.80
2019-03-08T14:41:25.303Z,19.80
2019-03-08T14:43:59.623Z,19.80
2019-03-08T14:46:41.995Z,19.80
2019-03-08T14:49:11.019Z,19.80
2019-03-08T14:51:39.695Z,19.80
2019-03-08T14:54:09.917Z,19.80
2019-03-08T14:56:38.987Z,19.90
2019-03-08T14:59:11.211Z,19.80
2019-03-08T15:01:39.968Z,19.90
2019-03-08T15:04:08.314Z,19.90
2019-03-08T15:06:37.000Z,19.90
2019-03-08T15:09:09.297Z,19.90
2019-03-08T15:11:39.101Z,19.90
2019-03-08T15:14:07.816Z,19.90
2019-03-08T15:16:39.081Z,19.80
2019-03-08T15:19:06.829Z,19.80
2019-03-08T15:21:37.128Z,19.80
2019-03-08T15:24:05.740Z,19.80
2019-03-08T15:26:34.417Z,19.80
2019-03-08T15:29:03.126Z,19.70
2019-03-08T15:31:31.776Z,19.70
2019-03-08T15:34:00.492Z,19.70
2019-03-08T15:36:29.179Z,19.70
2019-03-08T15:38:58.738Z,19.70
2019-03-08T15:41:28.140Z,19.70
2019-03-08T15:43:56.803Z,19.60
2019-03-08T15:46:26.818Z,19.60
2019-03-08T15:48:55.804Z,19.60
2019-03-08T15:51:25.476Z,19.60
2019-03-08T15:53:54.561Z,19.50
2019-03-08T15:56:23.359Z,19.50
2019-03-08T15:58:52.031Z,19.50
2019-03-08T16:01:20.716Z,19.40
2019-03-08T16:03:49.439Z,19.40
2019-03-08T16:06:19.669Z,19.40
2019-03-08T16:08:48.817Z,19.30
2019-03-08T16:11:17.487Z,19.30
2019-03-08T16:13:46.705Z,19.30
2019-03-08T16:16:15.371Z,19.30
2019-03-08T16:18:47.897Z,19.30
2019-03-08T16:21:14.415Z,19.30
2019-03-08T16:23:43.495Z,19.30
2019-03-08T16:26:12.484Z,19.30
2019-03-08T16:28:41.207Z,19.20
2019-03-08T16:31:25.582Z,19.20
2019-03-08T16:33:56.964Z,19.20
2019-03-08T16:36:42.640Z,19.10
2019-03-08T16:39:19.332Z,19.10
2019-03-08T16:42:06.425Z,19.10
2019-03-08T16:45:04.780Z,19.10
2019-03-08T16:47:52.529Z,19.00
2019-03-08T16:50:40.277Z,18.90
2019-03-08T16:53:16.264Z,18.90
2019-03-08T16:56:11.779Z,18.90
2019-03-08T16:59:11.579Z,18.80
2019-03-08T17:02:08.363Z,18.80
2019-03-08T17:04:57.195Z,18.70
2019-03-08T17:08:03.351Z,18.80
2019-03-08T17:10:46.076Z,18.80
2019-03-08T17:13:32.672Z,18.80
2019-03-08T17:16:19.598Z,18.70
2019-03-08T17:18:56.355Z,18.70
2019-03-08T17:21:42.884Z,18.60
2019-03-08T17:24:18.208Z,18.60
2019-03-08T17:26:51.007Z,18.50
2019-03-08T17:29:29.314Z,18.50
2019-03-08T17:32:19.111Z,18.50
2019-03-08T17:35:07.736Z,18.50
2019-03-08T17:37:57.964Z,18.50
2019-03-08T17:40:36.363Z,18.50
2019-03-08T17:43:10.672Z,18.50
2019-03-08T17:45:54.016Z,18.40
2019-03-08T17:48:32.515Z,18.40
2019-03-08T17:51:29.386Z,18.40
2019-03-08T17:54:11.984Z,18.40
2019-03-08T17:56:52.527Z,18.40
2019-03-08T17:59:46.195Z,18.40
2019-03-08T18:02:27.384Z,18.40
2019-03-08T18:05:05.913Z,18.40
2019-03-08T18:07:52.396Z,18.40
2019-03-08T18:10:39.242Z,18.40
2019-03-08T18:13:21.029Z,18.40
2019-03-08T18:15:55.670Z,18.40
2019-03-08T18:18:32.307Z,18.40
2019-03-08T18:21:07.888Z,18.30
2019-03-08T18:23:44.526Z,18.30
2019-03-08T18:26:30.344Z,18.30
2019-03-08T18:29:05.864Z,18.30
2019-03-08T18:32:11.787Z,18.30
2019-03-08T18:35:00.589Z,18.30
2019-03-08T18:37:51.388Z,18.30
2019-03-08T18:40:48.045Z,18.30
2019-03-08T18:43:42.363Z,18.30
2019-03-08T18:46:25.148Z,18.20
2019-03-08T18:49:12.199Z,18.20
2019-03-08T18:51:51.592Z,18.20
2019-03-08T18:54:39.379Z,18.20
2019-03-08T18:57:26.555Z,18.20
2019-03-08T19:00:23.263Z,18.20
2019-03-08T19:03:11.241Z,18.20
2019-03-08T19:06:03.172Z,18.20
2019-03-08T19:08:39.119Z,18.30
2019-03-08T19:11:14.485Z,18.20
2019-03-08T19:14:02.548Z,18.30
2019-03-08T19:16:37.467Z,18.30
2019-03-08T19:19:25.224Z,18.30
2019-03-08T19:22:15.979Z,18.30
2019-03-08T19:25:07.012Z,18.30
2019-03-08T19:27:53.099Z,18.30
2019-03-08T19:30:40.775Z,18.30
2019-03-08T19:33:31.839Z,18.20
2019-03-08T19:36:10.339Z,18.30
2019-03-08T19:39:13.392Z,18.20
2019-03-08T19:41:53.371Z,18.20
2019-03-08T19:44:30.782Z,18.20
2019-03-08T19:47:11.305Z,18.20
2019-03-08T19:49:56.512Z,18.20
2019-03-08T19:52:37.284Z,18.20
2019-03-08T19:55:12.383Z,18.30
2019-03-08T19:58:00.151Z,18.30
2019-03-08T20:00:45.615Z,18.30
2019-03-08T20:03:42.755Z,18.20
2019-03-08T20:06:22.450Z,18.20
2019-03-08T20:09:13.334Z,18.20
2019-03-08T20:12:12.948Z,18.10
2019-03-08T20:14:49.964Z,18.10
2019-03-08T20:17:35.924Z,18.10
2019-03-08T20:20:36.368Z,18.10
2019-03-08T20:23:18.149Z,18.10
2019-03-08T20:26:04.527Z,18.10
2019-03-08T20:28:45.227Z,18.10
2019-03-08T20:31:35.291Z,18.10
2019-03-08T20:34:23.080Z,18.10
2019-03-08T20:37:10.763Z,18.10
2019-03-08T20:39:52.472Z,18.10
2019-03-08T20:42:40.155Z,18.10
2019-03-08T20:45:40.541Z,18.10
2019-03-08T20:48:09.716Z,18.00
2019-03-08T20:50:38.308Z,18.00
2019-03-08T20:53:06.999Z,18.10
2019-03-08T20:55:35.884Z,18.00
2019-03-08T20:58:04.547Z,18.00
2019-03-08T21:00:33.308Z,18.00
2019-03-08T21:03:02.247Z,18.00
2019-03-08T21:05:30.907Z,18.10
2019-03-08T21:07:59.593Z,18.10
2019-03-08T21:10:28.443Z,18.10
2019-03-08T21:12:57.404Z,18.00
2019-03-08T21:15:26.347Z,18.00
2019-03-08T21:17:54.927Z,18.00
2019-03-08T21:20:23.536Z,18.00
2019-03-08T21:22:52.191Z,18.00
2019-03-08T21:25:20.812Z,18.00
2019-03-08T21:27:49.464Z,18.00
2019-03-08T21:30:18.411Z,18.00
2019-03-08T21:32:47.031Z,18.00
2019-03-08T21:35:15.691Z,18.00
2019-03-08T21:37:44.927Z,18.00
2019-03-08T21:40:13.592Z,18.00
2019-03-08T21:42:42.560Z,18.00
2019-03-08T21:45:12.052Z,18.00
2019-03-08T21:47:41.070Z,18.00
2019-03-08T21:50:11.432Z,17.90
2019-03-08T21:52:40.475Z,17.90
2019-03-08T21:55:09.161Z,17.90
2019-03-08T21:57:38.164Z,17.90
2019-03-08T22:00:12.332Z,17.90
2019-03-08T22:02:41.091Z,18.00
2019-03-08T22:05:09.747Z,17.90
2019-03-08T22:07:38.731Z,17.90
2019-03-08T22:10:15.007Z,17.90
2019-03-08T22:12:43.623Z,17.90
2019-03-08T22:15:12.697Z,17.80
2019-03-08T22:17:41.357Z,17.80
2019-03-08T22:20:10.259Z,17.80
2019-03-08T22:22:38.920Z,17.80
2019-03-08T22:25:07.688Z,17.80
2019-03-08T22:27:36.367Z,17.90
2019-03-08T22:30:06.612Z,17.90
2019-03-08T22:32:35.275Z,17.90
2019-03-08T22:35:04.640Z,17.90
2019-03-08T22:37:33.836Z,17.90
2019-03-08T22:40:02.495Z,17.90
2019-03-08T22:42:31.175Z,17.90
2019-03-08T22:44:59.779Z,17.90
2019-03-08T22:47:28.440Z,17.80
2019-03-08T22:49:57.085Z,17.80
2019-03-08T22:52:25.746Z,17.80
2019-03-08T22:54:54.701Z,17.80
2019-03-08T22:57:23.377Z,17.80
2019-03-08T22:59:52.042Z,17.80
2019-03-08T23:02:20.888Z,17.80
2019-03-08T23:04:49.888Z,17.80
2019-03-08T23:07:18.540Z,17.80
2019-03-08T23:09:47.463Z,17.80
2019-03-08T23:12:16.139Z,17.80
2019-03-08T23:14:44.728Z,17.80
2019-03-08T23:17:13.636Z,17.80
2019-03-08T23:19:42.318Z,17.80
2019-03-08T23:22:10.971Z,17.70
2019-03-08T23:24:40.012Z,17.70
2019-03-08T23:27:31.591Z,17.70
2019-03-08T23:30:04.824Z,17.70
2019-03-08T23:32:36.977Z,17.70
2019-03-08T23:35:05.823Z,17.70
2019-03-08T23:37:34.874Z,17.70
2019-03-08T23:40:03.967Z,17.70
2019-03-08T23:42:32.919Z,17.80
2019-03-08T23:45:01.543Z,17.80
2019-03-08T23:47:30.195Z,17.80
2019-03-08T23:50:00.329Z,17.80
2019-03-08T23:52:29.347Z,17.80
2019-03-08T23:54:58.208Z,17.70
2019-03-08T23:57:26.860Z,17.80
2019-03-08T23:59:55.621Z,17.70
